<?xml version="1.0" encoding="UTF-8" standalone="no" ?>
<gpx xmlns="http://www.topografix.com/GPX/1/1" xmlns:xsi="http://www.w3.org/2001/XMLSchema-instance" xsi:schemaLocation="http://www.topografix.com/GPX/1/1 http://www.topografix.com/GPX/1/1/gpx.xsd" version="1.1" creator="VisuGPX - https://www.visugpx.com">
  <metadata>
    <name>Saint Didier sous Riverie g2</name>
  </metadata>
  <trk>
    <name><![CDATA[Saint Didier sous Riverie g2_1]]></name>
    <trkseg>
      <trkpt lat="45.59567" lon="4.60894">
        <ele>520</ele>
        <time>2022-04-29T21:01:51Z</time>
        <extensions>
          <visugpx:TrkExtension xmlns:visugpx="https://www.visugpx.com/editgpx/">
            <visugpx:node>1</visugpx:node>
            </visugpx:TrkExtension>
        </extensions>
      </trkpt>
      <trkpt lat="45.59988" lon="4.60384">
        <ele>540</ele>
        <time>2022-04-29T20:49:35Z</time>
      </trkpt>
      <trkpt lat="45.60075" lon="4.60405">
        <ele>544</ele>
        <time>2022-04-29T20:47:37Z</time>
      </trkpt>
      <trkpt lat="45.60083" lon="4.60281">
        <ele>553</ele>
        <time>2022-04-29T20:45:41Z</time>
      </trkpt>
      <trkpt lat="45.60033" lon="4.60234">
        <ele>553</ele>
        <time>2022-04-29T20:44:21Z</time>
      </trkpt>
      <trkpt lat="45.60039" lon="4.60133">
        <ele>562</ele>
        <time>2022-04-29T20:42:46Z</time>
      </trkpt>
      <trkpt lat="45.60029" lon="4.60049">
        <ele>566</ele>
        <time>2022-04-29T20:41:27Z</time>
      </trkpt>
      <trkpt lat="45.60066" lon="4.59839">
        <ele>583</ele>
        <time>2022-04-29T20:38:05Z</time>
      </trkpt>
      <trkpt lat="45.59958" lon="4.59639">
        <ele>590</ele>
        <time>2022-04-29T20:34:09Z</time>
      </trkpt>
      <trkpt lat="45.59831" lon="4.59532">
        <ele>603</ele>
        <time>2022-04-29T20:30:52Z</time>
      </trkpt>
      <trkpt lat="45.59819" lon="4.59588">
        <ele>597</ele>
        <time>2022-04-29T20:29:57Z</time>
      </trkpt>
      <trkpt lat="45.59725" lon="4.59644">
        <ele>608</ele>
        <time>2022-04-29T20:27:42Z</time>
      </trkpt>
      <trkpt lat="45.59638" lon="4.59569">
        <ele>611</ele>
        <time>2022-04-29T20:25:26Z</time>
      </trkpt>
      <trkpt lat="45.59499" lon="4.59324">
        <ele>609</ele>
        <time>2022-04-29T20:20:31Z</time>
      </trkpt>
      <trkpt lat="45.59433" lon="4.59225">
        <ele>608</ele>
        <time>2022-04-29T20:18:24Z</time>
      </trkpt>
      <trkpt lat="45.59442" lon="4.59127">
        <ele>613</ele>
        <time>2022-04-29T20:16:51Z</time>
      </trkpt>
      <trkpt lat="45.59413" lon="4.58989">
        <ele>618</ele>
        <time>2022-04-29T20:14:37Z</time>
      </trkpt>
      <trkpt lat="45.59415" lon="4.58882">
        <ele>620</ele>
        <time>2022-04-29T20:12:57Z</time>
      </trkpt>
      <trkpt lat="45.59365" lon="4.58858">
        <ele>611</ele>
        <time>2022-04-29T20:11:47Z</time>
      </trkpt>
      <trkpt lat="45.59358" lon="4.58809">
        <ele>605</ele>
        <time>2022-04-29T20:11:00Z</time>
      </trkpt>
      <trkpt lat="45.59415" lon="4.58712">
        <ele>595</ele>
        <time>2022-04-29T20:09:02Z</time>
      </trkpt>
      <trkpt lat="45.59476" lon="4.58689">
        <ele>594</ele>
        <time>2022-04-29T20:07:37Z</time>
      </trkpt>
      <trkpt lat="45.59551" lon="4.5856">
        <ele>576</ele>
        <time>2022-04-29T20:05:01Z</time>
      </trkpt>
      <trkpt lat="45.59551" lon="4.58436">
        <ele>553</ele>
        <time>2022-04-29T20:03:05Z</time>
      </trkpt>
      <trkpt lat="45.59638" lon="4.58236">
        <ele>567</ele>
        <time>2022-04-29T19:59:25Z</time>
      </trkpt>
      <trkpt lat="45.59658" lon="4.58155">
        <ele>566</ele>
        <time>2022-04-29T19:58:05Z</time>
      </trkpt>
      <trkpt lat="45.59739" lon="4.57991">
        <ele>566</ele>
        <time>2022-04-29T19:54:57Z</time>
      </trkpt>
      <trkpt lat="45.59737" lon="4.57871">
        <ele>573</ele>
        <time>2022-04-29T19:53:05Z</time>
      </trkpt>
      <trkpt lat="45.5971" lon="4.57818">
        <ele>585</ele>
        <time>2022-04-29T19:52:04Z</time>
      </trkpt>
      <trkpt lat="45.59614" lon="4.5782">
        <ele>593</ele>
        <time>2022-04-29T19:49:56Z</time>
      </trkpt>
      <trkpt lat="45.59658" lon="4.57723">
        <ele>613</ele>
        <time>2022-04-29T19:48:08Z</time>
      </trkpt>
      <trkpt lat="45.59647" lon="4.57674">
        <ele>623</ele>
        <time>2022-04-29T19:47:20Z</time>
      </trkpt>
      <trkpt lat="45.59674" lon="4.57648">
        <ele>626</ele>
        <time>2022-04-29T19:46:37Z</time>
      </trkpt>
      <trkpt lat="45.59676" lon="4.57547">
        <ele>644</ele>
        <time>2022-04-29T19:45:02Z</time>
      </trkpt>
      <trkpt lat="45.59652" lon="4.57481">
        <ele>660</ele>
        <time>2022-04-29T19:43:53Z</time>
      </trkpt>
      <trkpt lat="45.59668" lon="4.57431">
        <ele>669</ele>
        <time>2022-04-29T19:43:01Z</time>
      </trkpt>
      <trkpt lat="45.59663" lon="4.57346">
        <ele>685</ele>
        <time>2022-04-29T19:41:42Z</time>
      </trkpt>
      <trkpt lat="45.5972" lon="4.57245">
        <ele>689</ele>
        <time>2022-04-29T19:39:41Z</time>
      </trkpt>
      <trkpt lat="45.59795" lon="4.57114">
        <ele>692</ele>
        <time>2022-04-29T19:37:03Z</time>
      </trkpt>
      <trkpt lat="45.59882" lon="4.57071">
        <ele>696</ele>
        <time>2022-04-29T19:35:00Z</time>
      </trkpt>
      <trkpt lat="45.59936" lon="4.57095">
        <ele>697</ele>
        <time>2022-04-29T19:33:44Z</time>
      </trkpt>
      <trkpt lat="45.5994" lon="4.57043">
        <ele>700</ele>
        <time>2022-04-29T19:32:55Z</time>
      </trkpt>
      <trkpt lat="45.59963" lon="4.57026">
        <ele>702</ele>
        <time>2022-04-29T19:32:21Z</time>
      </trkpt>
      <trkpt lat="45.59988" lon="4.57058">
        <ele>704</ele>
        <time>2022-04-29T19:31:36Z</time>
      </trkpt>
      <trkpt lat="45.60015" lon="4.57114">
        <ele>708</ele>
        <time>2022-04-29T19:30:33Z</time>
      </trkpt>
      <trkpt lat="45.60054" lon="4.57225">
        <ele>719</ele>
        <time>2022-04-29T19:28:37Z</time>
      </trkpt>
      <trkpt lat="45.60066" lon="4.57324">
        <ele>720</ele>
        <time>2022-04-29T19:27:03Z</time>
      </trkpt>
      <trkpt lat="45.60105" lon="4.57414">
        <ele>733</ele>
        <time>2022-04-29T19:25:24Z</time>
      </trkpt>
      <trkpt lat="45.60137" lon="4.57498">
        <ele>741</ele>
        <time>2022-04-29T19:23:55Z</time>
      </trkpt>
      <trkpt lat="45.6017" lon="4.57569">
        <ele>742</ele>
        <time>2022-04-29T19:22:35Z</time>
        <extensions>
          <visugpx:TrkExtension xmlns:visugpx="https://www.visugpx.com/editgpx/">
            <visugpx:node>2</visugpx:node>
            </visugpx:TrkExtension>
        </extensions>
      </trkpt>
      <trkpt lat="45.60192" lon="4.57584">
        <ele>748.1</ele>
      </trkpt>
      <trkpt lat="45.60214" lon="4.57608">
        <ele>751.2</ele>
      </trkpt>
      <trkpt lat="45.60245" lon="4.57634">
        <ele>755.7</ele>
      </trkpt>
      <trkpt lat="45.60244" lon="4.57624">
        <ele>756.8</ele>
      </trkpt>
      <trkpt lat="45.60209" lon="4.575">
        <ele>761.2</ele>
      </trkpt>
      <trkpt lat="45.60198" lon="4.57453">
        <ele>761.6</ele>
      </trkpt>
      <trkpt lat="45.60198" lon="4.57404">
        <ele>763.9</ele>
      </trkpt>
      <trkpt lat="45.60201" lon="4.57307">
        <ele>765.4</ele>
      </trkpt>
      <trkpt lat="45.60205" lon="4.57264">
        <ele>766.7</ele>
      </trkpt>
      <trkpt lat="45.60218" lon="4.57222">
        <ele>769.2</ele>
      </trkpt>
      <trkpt lat="45.60248" lon="4.57154">
        <ele>767.8</ele>
      </trkpt>
      <trkpt lat="45.60273" lon="4.57118">
        <ele>767</ele>
      </trkpt>
      <trkpt lat="45.60302" lon="4.57067">
        <ele>767.6</ele>
      </trkpt>
      <trkpt lat="45.6032" lon="4.57014">
        <ele>770.2</ele>
      </trkpt>
      <trkpt lat="45.60335" lon="4.56997">
        <ele>773</ele>
      </trkpt>
      <trkpt lat="45.60351" lon="4.56978">
        <ele>774.3</ele>
      </trkpt>
      <trkpt lat="45.60348" lon="4.57">
        <ele>776.7</ele>
      </trkpt>
      <trkpt lat="45.60349" lon="4.57004">
        <ele>777.4</ele>
      </trkpt>
      <trkpt lat="45.60354" lon="4.57007">
        <ele>779</ele>
      </trkpt>
      <trkpt lat="45.60421" lon="4.56936">
        <ele>786.7</ele>
      </trkpt>
      <trkpt lat="45.60456" lon="4.5693">
        <ele>790.2</ele>
      </trkpt>
      <trkpt lat="45.60476" lon="4.56941">
        <ele>793.4</ele>
      </trkpt>
      <trkpt lat="45.605" lon="4.56954">
        <ele>794.4</ele>
      </trkpt>
      <trkpt lat="45.60528" lon="4.56979">
        <ele>794.7</ele>
      </trkpt>
      <trkpt lat="45.60552" lon="4.57009">
        <ele>794.5</ele>
      </trkpt>
      <trkpt lat="45.60563" lon="4.5704">
        <ele>796</ele>
      </trkpt>
      <trkpt lat="45.60568" lon="4.57059">
        <ele>797.1</ele>
      </trkpt>
      <trkpt lat="45.6057" lon="4.57078">
        <ele>798.4</ele>
      </trkpt>
      <trkpt lat="45.6057" lon="4.57083">
        <ele>798.9</ele>
        <extensions>
          <visugpx:TrkExtension xmlns:visugpx="https://www.visugpx.com/editgpx/">
            <visugpx:node>3</visugpx:node>
            </visugpx:TrkExtension>
        </extensions>
      </trkpt>
      <trkpt lat="45.60571" lon="4.57141">
        <ele>801.3</ele>
      </trkpt>
      <trkpt lat="45.60565" lon="4.5718">
        <ele>803.3</ele>
      </trkpt>
      <trkpt lat="45.6055" lon="4.57251">
        <ele>806</ele>
      </trkpt>
      <trkpt lat="45.60546" lon="4.573">
        <ele>804.4</ele>
      </trkpt>
      <trkpt lat="45.60545" lon="4.57354">
        <ele>803</ele>
      </trkpt>
      <trkpt lat="45.60551" lon="4.57468">
        <ele>805.7</ele>
      </trkpt>
      <trkpt lat="45.60554" lon="4.57496">
        <ele>807.7</ele>
      </trkpt>
      <trkpt lat="45.60563" lon="4.57526">
        <ele>809.9</ele>
      </trkpt>
      <trkpt lat="45.6058" lon="4.57556">
        <ele>811.9</ele>
      </trkpt>
      <trkpt lat="45.60596" lon="4.57598">
        <ele>812.6</ele>
      </trkpt>
      <trkpt lat="45.60627" lon="4.57683">
        <ele>814.8</ele>
      </trkpt>
      <trkpt lat="45.60629" lon="4.57697">
        <ele>815.9</ele>
      </trkpt>
      <trkpt lat="45.60638" lon="4.57719">
        <ele>816.9</ele>
      </trkpt>
      <trkpt lat="45.60693" lon="4.57781">
        <ele>819</ele>
      </trkpt>
      <trkpt lat="45.60708" lon="4.578">
        <ele>819.3</ele>
      </trkpt>
      <trkpt lat="45.60715" lon="4.57789">
        <ele>818.9</ele>
      </trkpt>
      <trkpt lat="45.60734" lon="4.57733">
        <ele>815.1</ele>
      </trkpt>
      <trkpt lat="45.6077" lon="4.57661">
        <ele>805.3</ele>
      </trkpt>
      <trkpt lat="45.60785" lon="4.5764">
        <ele>800.9</ele>
      </trkpt>
      <trkpt lat="45.60805" lon="4.5763">
        <ele>798.4</ele>
      </trkpt>
      <trkpt lat="45.60821" lon="4.57618">
        <ele>794.6</ele>
      </trkpt>
      <trkpt lat="45.60842" lon="4.57612">
        <ele>791.2</ele>
      </trkpt>
      <trkpt lat="45.60883" lon="4.57611">
        <ele>785.8</ele>
      </trkpt>
      <trkpt lat="45.60965" lon="4.57605">
        <ele>769.7</ele>
      </trkpt>
      <trkpt lat="45.6099" lon="4.57607">
        <ele>764.6</ele>
      </trkpt>
      <trkpt lat="45.61015" lon="4.57606">
        <ele>759.7</ele>
      </trkpt>
      <trkpt lat="45.61067" lon="4.57592">
        <ele>751.4</ele>
      </trkpt>
      <trkpt lat="45.61086" lon="4.5758">
        <ele>748.2</ele>
      </trkpt>
      <trkpt lat="45.61105" lon="4.5757">
        <ele>745.8</ele>
      </trkpt>
      <trkpt lat="45.61105" lon="4.57561">
        <ele>744.7</ele>
      </trkpt>
      <trkpt lat="45.6111" lon="4.57554">
        <ele>743.8</ele>
      </trkpt>
      <trkpt lat="45.61168" lon="4.57516">
        <ele>743.1</ele>
      </trkpt>
      <trkpt lat="45.61175" lon="4.57498">
        <ele>743.6</ele>
      </trkpt>
      <trkpt lat="45.61186" lon="4.57502">
        <ele>744.3</ele>
      </trkpt>
      <trkpt lat="45.61197" lon="4.57507">
        <ele>745.1</ele>
      </trkpt>
      <trkpt lat="45.61217" lon="4.57492">
        <ele>748.5</ele>
      </trkpt>
      <trkpt lat="45.61231" lon="4.5747">
        <ele>751.3</ele>
      </trkpt>
      <trkpt lat="45.61239" lon="4.57452">
        <ele>752.9</ele>
      </trkpt>
      <trkpt lat="45.61253" lon="4.57437">
        <ele>755.4</ele>
      </trkpt>
      <trkpt lat="45.61277" lon="4.5743">
        <ele>758.4</ele>
      </trkpt>
      <trkpt lat="45.61301" lon="4.57428">
        <ele>761.1</ele>
      </trkpt>
      <trkpt lat="45.6134" lon="4.57418">
        <ele>766</ele>
      </trkpt>
      <trkpt lat="45.61367" lon="4.57415">
        <ele>769.8</ele>
      </trkpt>
      <trkpt lat="45.61377" lon="4.57412">
        <ele>771.1</ele>
        <extensions>
          <visugpx:TrkExtension xmlns:visugpx="https://www.visugpx.com/editgpx/">
            <visugpx:node>4</visugpx:node>
            </visugpx:TrkExtension>
        </extensions>
      </trkpt>
      <trkpt lat="45.61386" lon="4.5741">
        <ele>772.3</ele>
      </trkpt>
      <trkpt lat="45.61428" lon="4.57499">
        <ele>778.1</ele>
      </trkpt>
      <trkpt lat="45.61469" lon="4.57623">
        <ele>781.8</ele>
      </trkpt>
      <trkpt lat="45.61473" lon="4.57644">
        <ele>782</ele>
      </trkpt>
      <trkpt lat="45.61494" lon="4.57669">
        <ele>787.3</ele>
      </trkpt>
      <trkpt lat="45.61502" lon="4.57707">
        <ele>789.1</ele>
      </trkpt>
      <trkpt lat="45.61527" lon="4.57772">
        <ele>792</ele>
      </trkpt>
      <trkpt lat="45.61536" lon="4.57797">
        <ele>790.7</ele>
      </trkpt>
      <trkpt lat="45.61563" lon="4.57815">
        <ele>792.8</ele>
      </trkpt>
      <trkpt lat="45.61571" lon="4.57822">
        <ele>792.8</ele>
      </trkpt>
      <trkpt lat="45.61592" lon="4.5783">
        <ele>794.2</ele>
      </trkpt>
      <trkpt lat="45.61652" lon="4.57832">
        <ele>803.5</ele>
      </trkpt>
      <trkpt lat="45.6168" lon="4.57858">
        <ele>807.1</ele>
      </trkpt>
      <trkpt lat="45.61701" lon="4.57881">
        <ele>810.2</ele>
      </trkpt>
      <trkpt lat="45.61749" lon="4.57963">
        <ele>818.4</ele>
      </trkpt>
      <trkpt lat="45.61794" lon="4.58028">
        <ele>823.5</ele>
      </trkpt>
      <trkpt lat="45.61823" lon="4.58045">
        <ele>828.5</ele>
      </trkpt>
      <trkpt lat="45.61834" lon="4.58063">
        <ele>828.8</ele>
      </trkpt>
      <trkpt lat="45.61831" lon="4.58067">
        <ele>827.4</ele>
      </trkpt>
      <trkpt lat="45.61833" lon="4.58073">
        <ele>826.8</ele>
      </trkpt>
      <trkpt lat="45.61858" lon="4.58103">
        <ele>826.1</ele>
      </trkpt>
      <trkpt lat="45.6188" lon="4.58133">
        <ele>824.7</ele>
      </trkpt>
      <trkpt lat="45.61881" lon="4.58142">
        <ele>823.7</ele>
      </trkpt>
      <trkpt lat="45.61884" lon="4.58143">
        <ele>824.4</ele>
      </trkpt>
      <trkpt lat="45.61895" lon="4.58162">
        <ele>825</ele>
      </trkpt>
      <trkpt lat="45.61908" lon="4.58206">
        <ele>827.1</ele>
      </trkpt>
      <trkpt lat="45.6192" lon="4.58254">
        <ele>829.5</ele>
      </trkpt>
      <trkpt lat="45.6195" lon="4.58347">
        <ele>833.9</ele>
      </trkpt>
      <trkpt lat="45.61963" lon="4.58394">
        <ele>835.8</ele>
      </trkpt>
      <trkpt lat="45.61989" lon="4.58435">
        <ele>841.3</ele>
      </trkpt>
      <trkpt lat="45.62008" lon="4.58456">
        <ele>844.3</ele>
      </trkpt>
      <trkpt lat="45.62021" lon="4.58479">
        <ele>844.7</ele>
      </trkpt>
      <trkpt lat="45.62053" lon="4.58507">
        <ele>846</ele>
      </trkpt>
      <trkpt lat="45.62096" lon="4.58515">
        <ele>850.9</ele>
      </trkpt>
      <trkpt lat="45.62151" lon="4.58552">
        <ele>851.8</ele>
      </trkpt>
      <trkpt lat="45.62168" lon="4.58568">
        <ele>851.9</ele>
      </trkpt>
      <trkpt lat="45.62182" lon="4.586">
        <ele>848.3</ele>
      </trkpt>
      <trkpt lat="45.62198" lon="4.5862">
        <ele>848.5</ele>
      </trkpt>
      <trkpt lat="45.62213" lon="4.58646">
        <ele>848.2</ele>
      </trkpt>
      <trkpt lat="45.62226" lon="4.58681">
        <ele>847.4</ele>
      </trkpt>
      <trkpt lat="45.62222" lon="4.58684">
        <ele>846.7</ele>
      </trkpt>
      <trkpt lat="45.62217" lon="4.5871">
        <ele>845.2</ele>
      </trkpt>
      <trkpt lat="45.62216" lon="4.5871">
        <ele>845.1</ele>
        <extensions>
          <visugpx:TrkExtension xmlns:visugpx="https://www.visugpx.com/editgpx/">
            <visugpx:node>5</visugpx:node>
            </visugpx:TrkExtension>
        </extensions>
      </trkpt>
      <trkpt lat="45.62209" lon="4.58715">
        <ele>844.1</ele>
      </trkpt>
      <trkpt lat="45.62212" lon="4.58728">
        <ele>844.3</ele>
      </trkpt>
      <trkpt lat="45.62212" lon="4.58755">
        <ele>843.2</ele>
      </trkpt>
      <trkpt lat="45.62207" lon="4.58786">
        <ele>842.5</ele>
      </trkpt>
      <trkpt lat="45.6219" lon="4.58824">
        <ele>842.4</ele>
      </trkpt>
      <trkpt lat="45.62157" lon="4.58872">
        <ele>844.5</ele>
      </trkpt>
      <trkpt lat="45.62134" lon="4.58903">
        <ele>846.9</ele>
      </trkpt>
      <trkpt lat="45.6211" lon="4.5894">
        <ele>851.8</ele>
      </trkpt>
      <trkpt lat="45.62069" lon="4.59007">
        <ele>856.5</ele>
      </trkpt>
      <trkpt lat="45.62055" lon="4.59046">
        <ele>858</ele>
      </trkpt>
      <trkpt lat="45.62048" lon="4.59069">
        <ele>859</ele>
        <extensions>
          <visugpx:TrkExtension xmlns:visugpx="https://www.visugpx.com/editgpx/">
            <visugpx:node>13</visugpx:node>
            </visugpx:TrkExtension>
        </extensions>
      </trkpt>
      <trkpt lat="45.62037" lon="4.59109">
        <ele>861.3</ele>
      </trkpt>
      <trkpt lat="45.62028" lon="4.59131">
        <ele>862</ele>
      </trkpt>
      <trkpt lat="45.61992" lon="4.59217">
        <ele>863.5</ele>
      </trkpt>
      <trkpt lat="45.61983" lon="4.59235">
        <ele>864.1</ele>
      </trkpt>
      <trkpt lat="45.61936" lon="4.59279">
        <ele>864.1</ele>
      </trkpt>
      <trkpt lat="45.61898" lon="4.5934">
        <ele>863</ele>
      </trkpt>
      <trkpt lat="45.61885" lon="4.59352">
        <ele>862.6</ele>
      </trkpt>
      <trkpt lat="45.61811" lon="4.59361">
        <ele>859</ele>
      </trkpt>
      <trkpt lat="45.61749" lon="4.59353">
        <ele>858.1</ele>
      </trkpt>
      <trkpt lat="45.61679" lon="4.59336">
        <ele>858.2</ele>
      </trkpt>
      <trkpt lat="45.61581" lon="4.59327">
        <ele>858.8</ele>
      </trkpt>
      <trkpt lat="45.61534" lon="4.59317">
        <ele>854.3</ele>
      </trkpt>
      <trkpt lat="45.61433" lon="4.59307">
        <ele>845.6</ele>
      </trkpt>
      <trkpt lat="45.61386" lon="4.59293">
        <ele>841.4</ele>
      </trkpt>
      <trkpt lat="45.61382" lon="4.59302">
        <ele>839.7</ele>
      </trkpt>
      <trkpt lat="45.61411" lon="4.5945">
        <ele>826.7</ele>
      </trkpt>
      <trkpt lat="45.6141" lon="4.59479">
        <ele>825.4</ele>
      </trkpt>
      <trkpt lat="45.61393" lon="4.59568">
        <ele>818.7</ele>
      </trkpt>
      <trkpt lat="45.61383" lon="4.59573">
        <ele>816.2</ele>
      </trkpt>
      <trkpt lat="45.61373" lon="4.59586">
        <ele>813.5</ele>
      </trkpt>
      <trkpt lat="45.61305" lon="4.59772">
        <ele>790.1</ele>
        <extensions>
          <visugpx:TrkExtension xmlns:visugpx="https://www.visugpx.com/editgpx/">
            <visugpx:node>14</visugpx:node>
            </visugpx:TrkExtension>
        </extensions>
      </trkpt>
      <trkpt lat="45.61287" lon="4.59819">
        <ele>785.9</ele>
      </trkpt>
      <trkpt lat="45.61261" lon="4.598">
        <ele>785</ele>
      </trkpt>
      <trkpt lat="45.61233" lon="4.59767">
        <ele>783.8</ele>
      </trkpt>
      <trkpt lat="45.61179" lon="4.59829">
        <ele>780</ele>
      </trkpt>
      <trkpt lat="45.61128" lon="4.5989">
        <ele>776.5</ele>
      </trkpt>
      <trkpt lat="45.61109" lon="4.59919">
        <ele>773.5</ele>
      </trkpt>
      <trkpt lat="45.61095" lon="4.59929">
        <ele>771.2</ele>
        <extensions>
          <visugpx:TrkExtension xmlns:visugpx="https://www.visugpx.com/editgpx/">
            <visugpx:node>15</visugpx:node>
            </visugpx:TrkExtension>
        </extensions>
      </trkpt>
      <trkpt lat="45.61015" lon="4.59897">
        <ele>756</ele>
        <time>2022-04-29T13:52:49Z</time>
        <extensions>
          <visugpx:TrkExtension xmlns:visugpx="https://www.visugpx.com/editgpx/">
            <visugpx:node>10</visugpx:node>
            </visugpx:TrkExtension>
        </extensions>
      </trkpt>
      <trkpt lat="45.61044" lon="4.59794">
        <ele>764</ele>
        <time>2022-04-29T13:51:05Z</time>
      </trkpt>
      <trkpt lat="45.6098" lon="4.5977">
        <ele>759</ele>
        <time>2022-04-29T13:49:37Z</time>
      </trkpt>
      <trkpt lat="45.6094" lon="4.59635">
        <ele>768</ele>
        <time>2022-04-29T13:47:20Z</time>
      </trkpt>
      <trkpt lat="45.60869" lon="4.59547">
        <ele>763</ele>
        <time>2022-04-29T13:45:14Z</time>
      </trkpt>
      <trkpt lat="45.60868" lon="4.59455">
        <ele>763</ele>
        <time>2022-04-29T13:43:48Z</time>
      </trkpt>
      <trkpt lat="45.60896" lon="4.59376">
        <ele>767</ele>
        <time>2022-04-29T13:42:26Z</time>
      </trkpt>
      <trkpt lat="45.60905" lon="4.59157">
        <ele>771</ele>
        <time>2022-04-29T13:39:01Z</time>
      </trkpt>
      <trkpt lat="45.60848" lon="4.58979">
        <ele>769</ele>
        <time>2022-04-29T13:35:58Z</time>
      </trkpt>
      <trkpt lat="45.60776" lon="4.59004">
        <ele>764</ele>
        <time>2022-04-29T13:34:19Z</time>
      </trkpt>
      <trkpt lat="45.60515" lon="4.5894">
        <ele>757</ele>
        <time>2022-04-29T13:28:26Z</time>
      </trkpt>
      <trkpt lat="45.60418" lon="4.5894">
        <ele>747</ele>
        <time>2022-04-29T13:26:17Z</time>
      </trkpt>
      <trkpt lat="45.60366" lon="4.58968">
        <ele>738</ele>
        <time>2022-04-29T13:25:02Z</time>
      </trkpt>
      <trkpt lat="45.602" lon="4.58918">
        <ele>716</ele>
        <time>2022-04-29T13:21:16Z</time>
      </trkpt>
      <trkpt lat="45.60123" lon="4.58912">
        <ele>712</ele>
        <time>2022-04-29T13:19:33Z</time>
      </trkpt>
      <trkpt lat="45.60062" lon="4.59558">
        <ele>619</ele>
        <time>2022-04-29T13:09:25Z</time>
      </trkpt>
      <trkpt lat="45.60056" lon="4.59648">
        <ele>607</ele>
        <time>2022-04-29T13:08:00Z</time>
      </trkpt>
      <trkpt lat="45.6005" lon="4.59703">
        <ele>600</ele>
        <time>2022-04-29T13:07:08Z</time>
      </trkpt>
      <trkpt lat="45.60114" lon="4.59854">
        <ele>585</ele>
        <time>2022-04-29T13:04:23Z</time>
      </trkpt>
      <trkpt lat="45.60135" lon="4.59912">
        <ele>580</ele>
        <time>2022-04-29T13:03:22Z</time>
      </trkpt>
      <trkpt lat="45.60119" lon="4.60069">
        <ele>570</ele>
        <time>2022-04-29T13:00:54Z</time>
      </trkpt>
      <trkpt lat="45.60096" lon="4.60294">
        <ele>552</ele>
        <time>2022-04-29T12:57:22Z</time>
      </trkpt>
      <trkpt lat="45.60066" lon="4.6036">
        <ele>547</ele>
        <time>2022-04-29T12:56:08Z</time>
      </trkpt>
      <trkpt lat="45.60053" lon="4.60485">
        <ele>536</ele>
        <time>2022-04-29T12:54:10Z</time>
      </trkpt>
      <trkpt lat="45.6005" lon="4.60504">
        <ele>534</ele>
        <time>2022-04-29T12:53:52Z</time>
      </trkpt>
      <trkpt lat="45.60017" lon="4.60543">
        <ele>533</ele>
        <time>2022-04-29T12:52:55Z</time>
      </trkpt>
      <trkpt lat="45.59994" lon="4.60667">
        <ele>530</ele>
        <time>2022-04-29T12:50:55Z</time>
      </trkpt>
      <trkpt lat="45.5987" lon="4.60698">
        <ele>529</ele>
        <time>2022-04-29T12:48:07Z</time>
      </trkpt>
      <trkpt lat="45.5985" lon="4.60646">
        <ele>531</ele>
        <time>2022-04-29T12:47:12Z</time>
      </trkpt>
      <trkpt lat="45.59817" lon="4.6064">
        <ele>530</ele>
        <time>2022-04-29T12:46:28Z</time>
      </trkpt>
      <trkpt lat="45.59615" lon="4.60803">
        <ele>522</ele>
        <time>2022-04-29T12:41:18Z</time>
      </trkpt>
      <trkpt lat="45.59588" lon="4.608">
        <ele>521</ele>
        <time>2022-04-29T12:40:42Z</time>
      </trkpt>
      <trkpt lat="45.59558" lon="4.60827">
        <ele>518</ele>
        <time>2022-04-29T12:39:55Z</time>
      </trkpt>
      <trkpt lat="45.59554" lon="4.60852">
        <ele>518</ele>
        <time>2022-04-29T12:39:31Z</time>
      </trkpt>
      <trkpt lat="45.59554" lon="4.60876">
        <ele>518</ele>
        <time>2022-04-29T12:39:08Z</time>
      </trkpt>
      <trkpt lat="45.59567" lon="4.60894">
        <ele>520</ele>
        <time>2022-04-29T12:38:44Z</time>
        <extensions>
          <visugpx:TrkExtension xmlns:visugpx="https://www.visugpx.com/editgpx/">
            <visugpx:node>9</visugpx:node>
            </visugpx:TrkExtension>
        </extensions>
      </trkpt>
    </trkseg>
  </trk>
</gpx>